Terminal Aerodrome Forecast
Issued by NWS

Home | Current Version | Previous Version | Text Only | Print | Product List | Glossary On
Versions: 1 2 3 4 5 6 7 8 9 10 11 12 13 14 15 16 17 18 19 20 21 22
000
FTUS44 KBMX 162300
TAFANB
TAF
KANB 162334Z 1700/1724 34004KT P6SM SCT050 SCT100
     FM171000 33004KT P6SM SCT020 BKN040
      TEMPO 1710/1713 5SM BR
     FM171400 31006KT P6SM SCT250=

USA.gov is the U.S. government's official web portal to all federal, state and local government web resources and services.